Time;durP1;ratioP1;P1;durP2;ratioP2;P2;SDS_P1;SDS_P2;PMS_P1;PMS_P2;Temp;Humidity;BMP_temperature;BMP_pressure;BME280_temperature;BME280_humidity;BME280_pressure;Samples;Min_cycle;Max_cycle;Signal;HPM_P1;HPM_P2
2023/11/03 00:00:50;;;;;;;1.73;1.00;;;13.50;57.90;;;;;;5053687;28;20187;-51
2023/11/03 00:03:15;;;;;;;1.90;1.00;;;13.50;58.00;;;;;;5050389;28;20188;-57
2023/11/03 00:05:41;;;;;;;1.47;1.07;;;13.50;58.00;;;;;;5053280;28;20321;-50
2023/11/03 00:08:08;;;;;;;2.53;1.00;;;13.30;58.30;;;;;;5052085;28;20265;-53
2023/11/03 00:10:36;;;;;;;1.97;1.00;;;13.10;59.00;;;;;;5052170;28;20677;-53
2023/11/03 00:13:02;;;;;;;0.97;0.83;;;13.10;59.20;;;;;;5050843;28;20452;-53
2023/11/03 00:15:27;;;;;;;3.13;1.30;;;13.00;59.10;;;;;;5056268;28;20457;-52
2023/11/03 00:17:53;;;;;;;4.20;1.37;;;13.00;59.40;;;;;;5054128;28;21995;-57
2023/11/03 00:20:19;;;;;;;1.30;1.00;;;12.90;60.10;;;;;;5052363;28;20226;-54
2023/11/03 00:22:46;;;;;;;2.50;1.00;;;13.00;59.40;;;;;;5046698;28;21741;-56
2023/11/03 00:25:14;;;;;;;7.73;1.43;;;13.10;59.30;;;;;;5044887;28;20450;-54
2023/11/03 00:27:40;;;;;;;1.30;1.03;;;13.10;59.10;;;;;;5047256;28;20994;-56
2023/11/03 00:30:07;;;;;;;3.17;1.10;;;13.10;59.10;;;;;;5049960;28;20531;-53
2023/11/03 00:32:34;;;;;;;1.67;1.20;;;13.10;58.90;;;;;;5059267;28;21201;-52
2023/11/03 00:34:59;;;;;;;2.67;1.10;;;13.10;58.90;;;;;;5072138;28;20568;-50
2023/11/03 00:37:25;;;;;;;3.10;1.30;;;13.10;58.80;;;;;;5069060;28;20530;-54
2023/11/03 00:39:51;;;;;;;4.10;2.23;;;13.20;58.70;;;;;;5058018;28;20212;-51
2023/11/03 00:42:16;;;;;;;5.40;1.07;;;13.30;58.50;;;;;;5067629;28;20203;-52
2023/11/03 00:44:42;;;;;;;1.20;1.10;;;13.30;58.40;;;;;;5070434;28;20192;-51
2023/11/03 00:47:08;;;;;;;1.50;1.40;;;13.30;58.30;;;;;;5052816;28;20321;-53
2023/11/03 00:49:37;;;;;;;2.10;1.30;;;13.30;58.40;;;;;;5049804;28;20230;-55
2023/11/03 00:52:08;;;;;;;4.40;1.47;;;13.40;58.30;;;;;;5050334;28;20445;-54
2023/11/03 00:54:35;;;;;;;2.70;1.73;;;13.40;58.10;;;;;;5045453;28;20476;-56
2023/11/03 00:57:01;;;;;;;2.73;1.23;;;13.40;58.00;;;;;;5064108;28;20453;-50
2023/11/03 00:59:27;;;;;;;2.80;1.30;;;13.40;57.90;;;;;;5065362;28;20462;-52
2023/11/03 01:01:53;;;;;;;2.27;1.10;;;13.40;57.90;;;;;;5060164;28;20180;-56
2023/11/03 01:04:18;;;;;;;3.80;1.30;;;13.40;58.00;;;;;;5057591;28;20506;-53
2023/11/03 01:06:44;;;;;;;4.37;1.40;;;13.40;58.00;;;;;;5059456;28;20306;-54
2023/11/03 01:09:09;;;;;;;4.80;1.80;;;13.30;58.00;;;;;;5078635;28;20215;-50
2023/11/03 01:11:40;;;;;;;2.20;1.43;;;13.30;58.00;;;;;;5066304;28;20261;-52
2023/11/03 01:14:09;;;;;;;1.27;1.17;;;13.30;57.80;;;;;;5067477;28;20298;-53
2023/11/03 01:16:36;;;;;;;2.50;1.27;;;13.30;57.90;;;;;;5070688;28;20442;-53
2023/11/03 01:19:04;;;;;;;1.83;1.30;;;13.20;57.80;;;;;;5068531;28;20470;-53
2023/11/03 01:21:39;;;;;;;2.77;1.50;;;13.30;57.70;;;;;;5060858;28;20446;-52
2023/11/03 01:24:06;;;;;;;3.87;1.50;;;13.30;57.40;;;;;;5059156;28;20598;-53
2023/11/03 01:26:33;;;;;;;5.77;1.60;;;13.30;57.30;;;;;;5039593;28;20559;-56
2023/11/03 01:28:59;;;;;;;2.30;1.17;;;13.20;57.30;;;;;;5043683;28;20885;-55
2023/11/03 01:31:25;;;;;;;2.10;1.10;;;12.90;57.60;;;;;;5042509;28;20445;-55
2023/11/03 01:33:51;;;;;;;2.60;1.30;;;12.70;58.20;;;;;;5044759;28;20180;-54
2023/11/03 01:36:16;;;;;;;4.00;1.30;;;12.60;58.60;;;;;;5042118;28;21039;-54
2023/11/03 01:38:43;;;;;;;2.23;1.37;;;12.70;58.50;;;;;;5046612;28;20215;-57
2023/11/03 01:41:09;;;;;;;3.33;1.30;;;12.80;58.40;;;;;;5038792;28;20217;-55
2023/11/03 01:43:36;;;;;;;5.87;1.20;;;12.80;58.40;;;;;;5039113;28;21027;-57
2023/11/03 01:46:02;;;;;;;2.80;1.83;;;12.50;58.40;;;;;;5040239;28;20352;-58
2023/11/03 01:48:31;;;;;;;8.73;1.50;;;12.50;58.60;;;;;;5045275;28;20507;-52
2023/11/03 01:51:00;;;;;;;4.67;1.60;;;12.70;58.50;;;;;;5043117;28;20438;-51
2023/11/03 01:53:27;;;;;;;5.20;1.70;;;12.80;58.40;;;;;;5062461;28;20454;-52
2023/11/03 01:55:53;;;;;;;12.50;3.27;;;12.90;58.40;;;;;;5059088;28;20438;-54
2023/11/03 01:58:19;;;;;;;1.90;1.27;;;12.80;58.40;;;;;;5051938;28;20825;-55
2023/11/03 02:00:45;;;;;;;4.27;1.70;;;12.90;58.30;;;;;;5045243;28;20219;-56
2023/11/03 02:03:11;;;;;;;3.30;1.10;;;13.00;58.00;;;;;;5047567;28;21166;-54
2023/11/03 02:05:38;;;;;;;3.20;1.53;;;13.00;57.80;;;;;;5050706;28;20560;-54
2023/11/03 02:08:04;;;;;;;4.37;1.53;;;12.80;57.70;;;;;;5051172;28;21905;-53
2023/11/03 02:10:30;;;;;;;1.43;1.20;;;12.60;58.20;;;;;;5060143;28;20802;-50
2023/11/03 02:12:55;;;;;;;2.33;1.60;;;12.40;58.70;;;;;;5064328;28;20434;-50
2023/11/03 02:15:22;;;;;;;5.23;1.50;;;12.30;58.90;;;;;;5067208;28;20187;-58
2023/11/03 02:17:48;;;;;;;7.57;1.77;;;12.40;58.70;;;;;;5065609;28;20322;-51
2023/11/03 02:20:13;;;;;;;1.47;1.10;;;12.40;58.60;;;;;;5063716;28;20912;-50
2023/11/03 02:22:39;;;;;;;2.10;1.50;;;12.30;58.60;;;;;;5062858;28;20471;-58
2023/11/03 02:25:05;;;;;;;4.70;1.40;;;12.30;58.70;;;;;;5062734;28;20556;-54
2023/11/03 02:27:30;;;;;;;3.73;1.43;;;12.30;58.80;;;;;;5066403;28;20871;-54
2023/11/03 02:29:56;;;;;;;2.40;1.83;;;12.20;58.90;;;;;;5070981;28;20481;-51
2023/11/03 02:32:22;;;;;;;3.80;1.23;;;12.20;58.90;;;;;;5056838;28;20188;-55
2023/11/03 02:34:48;;;;;;;2.20;1.50;;;12.20;58.90;;;;;;5058993;28;20184;-55
2023/11/03 02:37:14;;;;;;;3.73;1.83;;;12.10;58.90;;;;;;5056823;28;20450;-50
2023/11/03 02:39:40;;;;;;;3.30;1.40;;;12.10;58.90;;;;;;5065350;28;20458;-53
2023/11/03 02:42:06;;;;;;;4.23;1.80;;;12.10;59.00;;;;;;5063371;28;20187;-50
2023/11/03 02:44:32;;;;;;;3.27;2.00;;;12.00;59.10;;;;;;5068429;28;20824;-56
2023/11/03 02:46:58;;;;;;;3.77;1.83;;;12.00;59.10;;;;;;5059167;28;20458;-51
2023/11/03 02:49:24;;;;;;;1.77;1.10;;;12.00;59.10;;;;;;5068755;28;21255;-51
2023/11/03 02:51:49;;;;;;;3.50;1.70;;;11.90;59.10;;;;;;5069322;28;20524;-50
2023/11/03 02:54:15;;;;;;;7.90;1.73;;;11.80;59.50;;;;;;5061096;28;20544;-55
2023/11/03 02:56:41;;;;;;;4.60;1.60;;;11.90;59.60;;;;;;5067362;28;20575;-50
2023/11/03 02:59:08;;;;;;;1.17;1.03;;;11.80;59.70;;;;;;5062669;28;20207;-54
2023/11/03 03:01:36;;;;;;;1.30;1.20;;;11.80;59.80;;;;;;5061574;28;20663;-55
2023/11/03 03:04:03;;;;;;;2.17;1.37;;;11.80;59.60;;;;;;5060612;28;20445;-50
2023/11/03 03:06:28;;;;;;;5.53;1.70;;;11.80;59.80;;;;;;5059380;28;20806;-50
2023/11/03 03:08:54;;;;;;;3.50;1.73;;;11.90;59.80;;;;;;5057020;28;20481;-50
2023/11/03 03:11:19;;;;;;;2.70;1.70;;;11.90;59.50;;;;;;5058111;28;20176;-51
2023/11/03 03:13:45;;;;;;;2.47;1.50;;;11.90;59.40;;;;;;5061112;28;20241;-52
2023/11/03 03:16:16;;;;;;;4.00;1.10;;;11.90;59.60;;;;;;5056968;28;22183;-51
2023/11/03 03:18:42;;;;;;;5.40;1.33;;;12.00;59.60;;;;;;5058386;28;20255;-50
2023/11/03 03:21:08;;;;;;;2.23;1.33;;;12.00;59.70;;;;;;5065529;28;20526;-55
2023/11/03 03:23:33;;;;;;;4.53;1.47;;;12.00;59.50;;;;;;5054689;28;20195;-54
2023/11/03 03:25:59;;;;;;;1.67;1.50;;;12.10;59.40;;;;;;5058262;28;20264;-50
2023/11/03 03:28:24;;;;;;;7.50;1.40;;;12.00;59.20;;;;;;5060659;28;20266;-55
2023/11/03 03:30:51;;;;;;;1.97;1.10;;;12.00;59.30;;;;;;5063466;28;20218;-52
2023/11/03 03:33:16;;;;;;;2.10;1.50;;;12.00;59.50;;;;;;5066312;28;20180;-50
2023/11/03 03:35:42;;;;;;;4.77;1.80;;;12.00;59.70;;;;;;5067271;28;20817;-51
2023/11/03 03:38:07;;;;;;;7.30;1.60;;;12.00;59.70;;;;;;5060788;28;20226;-55
2023/11/03 03:40:33;;;;;;;2.47;1.73;;;12.00;59.70;;;;;;5058353;28;20191;-50
2023/11/03 03:43:02;;;;;;;3.93;1.60;;;12.00;59.40;;;;;;5062053;28;20230;-50
2023/11/03 03:45:28;;;;;;;2.17;1.33;;;12.00;59.30;;;;;;5064742;28;20709;-51
2023/11/03 03:47:54;;;;;;;2.90;1.37;;;12.10;59.30;;;;;;5056874;28;20465;-53
2023/11/03 03:50:20;;;;;;;2.60;1.73;;;12.00;59.30;;;;;;5064135;28;20438;-54
2023/11/03 03:52:46;;;;;;;2.33;1.20;;;12.00;59.40;;;;;;5066737;28;20236;-54
2023/11/03 03:55:11;;;;;;;4.07;1.70;;;12.00;59.40;;;;;;5061741;28;20195;-50
2023/11/03 03:57:37;;;;;;;3.63;2.23;;;12.00;59.50;;;;;;5062457;28;20192;-53
2023/11/03 04:00:03;;;;;;;1.70;1.60;;;12.00;59.50;;;;;;5064036;28;20203;-51
2023/11/03 04:02:29;;;;;;;2.97;2.17;;;12.00;59.50;;;;;;5066129;28;20199;-50
2023/11/03 04:04:55;;;;;;;5.43;1.77;;;11.10;61.60;;;;;;5070104;28;20833;-52
2023/11/03 04:07:20;;;;;;;2.20;1.70;;;10.70;63.70;;;;;;5056165;28;20755;-51
2023/11/03 04:09:46;;;;;;;4.50;1.60;;;10.30;65.10;;;;;;5057484;28;20200;-53
2023/11/03 04:12:12;;;;;;;3.23;1.90;;;10.40;66.30;;;;;;5060488;28;20223;-53
2023/11/03 04:14:37;;;;;;;1.83;1.53;;;10.60;65.50;;;;;;5048926;28;20220;-56
2023/11/03 04:17:03;;;;;;;2.23;1.83;;;10.90;64.80;;;;;;5041573;28;20219;-51
2023/11/03 04:19:29;;;;;;;3.73;2.20;;;11.00;64.00;;;;;;5065473;28;20260;-50
2023/11/03 04:21:54;;;;;;;4.60;1.93;;;11.20;63.30;;;;;;5051647;28;20191;-53
2023/11/03 04:24:20;;;;;;;2.43;1.57;;;11.40;63.00;;;;;;5060531;28;20176;-50
2023/11/03 04:26:46;;;;;;;3.40;2.90;;;11.50;62.80;;;;;;5055404;28;21173;-57
2023/11/03 04:29:11;;;;;;;3.63;1.70;;;11.50;62.70;;;;;;5061699;28;20265;-53
2023/11/03 04:31:37;;;;;;;2.90;1.70;;;11.60;62.70;;;;;;5068065;28;20844;-53
2023/11/03 04:34:03;;;;;;;4.80;2.00;;;11.60;62.50;;;;;;5064274;28;20736;-53
2023/11/03 04:36:29;;;;;;;3.03;1.80;;;11.70;62.80;;;;;;5055506;28;20605;-51
2023/11/03 04:38:55;;;;;;;2.60;1.50;;;11.80;62.60;;;;;;5066615;28;20485;-53
2023/11/03 04:41:20;;;;;;;2.70;1.80;;;11.80;62.50;;;;;;5048826;28;20438;-53
2023/11/03 04:43:46;;;;;;;1.53;1.40;;;11.70;62.60;;;;;;5055431;28;20233;-56
2023/11/03 04:46:12;;;;;;;3.67;1.60;;;11.60;62.90;;;;;;5034388;28;20372;-52
2023/11/03 04:48:38;;;;;;;2.37;1.80;;;11.70;62.90;;;;;;5055379;28;20553;-55
2023/11/03 04:51:04;;;;;;;2.03;1.57;;;11.70;62.70;;;;;;5046159;28;21270;-55
2023/11/03 04:53:29;;;;;;;2.93;2.07;;;11.70;62.80;;;;;;5051512;28;20209;-54
2023/11/03 04:55:55;;;;;;;2.73;1.57;;;11.50;62.90;;;;;;5053859;28;20679;-53
2023/11/03 04:58:21;;;;;;;2.30;1.60;;;11.40;64.10;;;;;;5058110;28;20211;-56
2023/11/03 05:00:47;;;;;;;4.53;2.10;;;11.50;64.00;;;;;;5052967;28;20196;-53
2023/11/03 05:03:14;;;;;;;5.67;1.90;;;11.40;64.00;;;;;;5068205;28;20200;-53
2023/11/03 05:05:41;;;;;;;2.40;1.63;;;11.40;64.30;;;;;;5058560;28;20446;-55
2023/11/03 05:08:08;;;;;;;1.93;1.80;;;11.40;64.30;;;;;;5066685;28;20462;-52
2023/11/03 05:10:33;;;;;;;3.40;2.43;;;11.50;64.50;;;;;;5060391;28;20468;-51
2023/11/03 05:13:00;;;;;;;5.40;2.03;;;11.60;64.00;;;;;;5062517;28;20553;-52
2023/11/03 05:15:25;;;;;;;2.80;1.80;;;11.60;63.70;;;;;;5064637;28;20191;-54
2023/11/03 05:17:51;;;;;;;2.27;1.43;;;11.60;63.70;;;;;;5058097;28;20442;-55
2023/11/03 05:20:16;;;;;;;3.60;1.67;;;11.70;63.40;;;;;;5047444;28;20207;-53
2023/11/03 05:22:42;;;;;;;4.10;2.13;;;11.60;63.40;;;;;;5058433;28;20199;-53
2023/11/03 05:25:08;;;;;;;3.87;2.43;;;11.60;63.60;;;;;;5039983;28;20192;-55
2023/11/03 05:27:33;;;;;;;2.77;1.57;;;11.50;63.80;;;;;;5037522;28;20212;-57
2023/11/03 05:29:59;;;;;;;12.37;2.03;;;11.40;64.10;;;;;;5035936;28;20815;-56
2023/11/03 05:32:25;;;;;;;1.87;1.10;;;11.20;64.60;;;;;;5038994;28;20467;-53
2023/11/03 05:34:51;;;;;;;5.43;1.83;;;10.90;65.70;;;;;;5038485;28;20315;-56
2023/11/03 05:37:16;;;;;;;2.40;1.50;;;11.00;65.80;;;;;;5039684;28;20460;-56
2023/11/03 05:39:42;;;;;;;3.07;1.57;;;11.00;65.50;;;;;;5038598;28;20966;-55
2023/11/03 05:42:07;;;;;;;4.17;2.00;;;11.10;65.40;;;;;;5042950;28;20886;-52
2023/11/03 05:44:33;;;;;;;3.53;1.53;;;11.40;64.40;;;;;;5041800;28;20659;-53
2023/11/03 05:47:02;;;;;;;4.37;1.20;;;11.50;63.90;;;;;;5041720;28;20224;-52
2023/11/03 05:49:28;;;;;;;2.30;1.50;;;11.60;63.40;;;;;;5037891;28;20204;-55
2023/11/03 05:51:54;;;;;;;4.30;1.70;;;11.70;63.20;;;;;;5043725;28;20493;-57
2023/11/03 05:54:19;;;;;;;1.10;1.00;;;11.80;62.50;;;;;;5049527;28;20282;-54
2023/11/03 05:56:45;;;;;;;4.70;2.00;;;11.80;62.60;;;;;;5046945;28;20501;-54
2023/11/03 05:59:12;;;;;;;3.13;1.60;;;11.80;62.20;;;;;;5048792;28;20224;-55
2023/11/03 06:01:38;;;;;;;1.70;1.60;;;11.90;62.30;;;;;;5044795;28;20458;-53
2023/11/03 06:04:04;;;;;;;7.23;1.77;;;12.00;61.70;;;;;;5050979;28;20292;-55
2023/11/03 06:06:29;;;;;;;6.33;1.43;;;12.10;61.50;;;;;;5041222;28;20368;-53
2023/11/03 06:08:55;;;;;;;6.47;1.87;;;12.10;61.10;;;;;;5040778;28;20212;-54
2023/11/03 06:11:22;;;;;;;4.10;1.50;;;12.10;61.00;;;;;;5036148;28;20891;-57
2023/11/03 06:13:48;;;;;;;2.23;1.47;;;11.90;61.60;;;;;;5041156;28;20202;-57
2023/11/03 06:16:14;;;;;;;2.93;1.60;;;12.00;61.50;;;;;;5034252;28;20457;-57
2023/11/03 06:18:41;;;;;;;1.60;1.40;;;12.10;60.80;;;;;;5039590;28;20849;-54
2023/11/03 06:21:07;;;;;;;1.97;1.50;;;12.20;61.40;;;;;;5047010;28;22100;-54
2023/11/03 06:23:32;;;;;;;2.30;1.20;;;12.30;61.00;;;;;;5039311;28;20458;-54
2023/11/03 06:25:58;;;;;;;2.07;1.43;;;12.40;60.70;;;;;;5035750;28;20287;-54
2023/11/03 06:28:23;;;;;;;2.70;1.83;;;12.50;60.30;;;;;;5035172;28;20213;-54
2023/11/03 06:30:50;;;;;;;3.20;1.27;;;12.50;59.90;;;;;;5040220;28;20176;-52
2023/11/03 06:33:15;;;;;;;6.50;2.07;;;12.60;59.70;;;;;;5045612;28;20659;-56
2023/11/03 06:35:41;;;;;;;2.63;1.63;;;12.70;59.70;;;;;;5054205;28;20500;-51
2023/11/03 06:38:06;;;;;;;5.13;1.73;;;12.70;60.10;;;;;;5068037;28;20195;-52
2023/11/03 06:40:33;;;;;;;3.87;2.10;;;12.90;60.70;;;;;;5057957;28;20188;-53
2023/11/03 06:42:59;;;;;;;6.70;1.80;;;13.00;60.30;;;;;;5057171;28;20841;-50
2023/11/03 06:45:25;;;;;;;3.37;1.43;;;13.20;60.60;;;;;;5057250;28;20488;-52
2023/11/03 06:47:50;;;;;;;3.23;1.90;;;13.30;60.30;;;;;;5055372;28;20204;-52
2023/11/03 06:50:16;;;;;;;2.90;1.87;;;13.40;60.60;;;;;;5056056;28;20750;-53
2023/11/03 06:52:42;;;;;;;1.77;1.50;;;13.50;59.90;;;;;;5059606;28;20211;-51
2023/11/03 06:55:08;;;;;;;3.10;1.47;;;13.60;59.00;;;;;;5067085;28;20203;-51
2023/11/03 06:57:38;;;;;;;3.60;1.47;;;13.70;59.20;;;;;;5054063;28;20525;-54
2023/11/03 07:00:04;;;;;;;2.87;1.70;;;13.70;59.20;;;;;;5059936;28;20473;-50
2023/11/03 07:02:31;;;;;;;3.07;1.73;;;13.80;58.70;;;;;;5065936;28;20899;-52
2023/11/03 07:04:56;;;;;;;7.37;1.60;;;13.60;57.90;;;;;;5066091;28;20455;-51
2023/11/03 07:07:22;;;;;;;2.83;1.67;;;13.40;57.90;;;;;;5068382;28;20972;-50
2023/11/03 07:09:47;;;;;;;3.57;1.50;;;13.10;58.30;;;;;;5065590;28;20212;-55
2023/11/03 07:12:13;;;;;;;4.90;1.60;;;13.20;58.50;;;;;;5067520;28;20250;-54
2023/11/03 07:14:39;;;;;;;5.50;1.47;;;13.30;58.60;;;;;;5065558;28;20187;-55
2023/11/03 07:17:05;;;;;;;5.80;2.17;;;13.30;58.70;;;;;;5064821;28;20184;-55
2023/11/03 07:19:31;;;;;;;42.37;36.97;;;13.40;58.70;;;;;;5068210;28;20195;-50
2023/11/03 07:21:57;;;;;;;61.13;49.77;;;13.50;58.70;;;;;;5066541;28;20445;-56
2023/11/03 07:24:22;;;;;;;12.07;8.20;;;13.60;58.60;;;;;;5063440;28;20198;-55
2023/11/03 07:26:51;;;;;;;4.67;3.77;;;13.60;58.40;;;;;;5061281;28;20217;-52
2023/11/03 07:29:19;;;;;;;5.23;2.03;;;13.60;58.30;;;;;;5065881;28;20227;-53
2023/11/03 07:31:46;;;;;;;2.90;2.63;;;13.80;58.30;;;;;;5065693;28;20446;-53
2023/11/03 07:34:12;;;;;;;5.33;1.80;;;13.80;58.10;;;;;;5067190;28;20813;-50
2023/11/03 07:36:38;;;;;;;3.73;1.90;;;13.90;57.60;;;;;;5066491;28;20453;-53
2023/11/03 07:39:06;;;;;;;3.03;1.60;;;13.90;57.60;;;;;;5068731;28;20466;-52
2023/11/03 07:41:33;;;;;;;7.63;1.77;;;13.90;57.10;;;;;;5067243;28;20445;-51
2023/11/03 07:43:59;;;;;;;5.20;1.70;;;14.00;57.10;;;;;;5067691;28;20442;-50
2023/11/03 07:46:24;;;;;;;3.70;1.70;;;14.10;57.00;;;;;;5067395;28;20523;-55
2023/11/03 07:48:50;;;;;;;9.17;1.93;;;14.10;56.70;;;;;;5067698;28;20299;-57
2023/11/03 07:51:16;;;;;;;2.80;1.57;;;14.20;56.70;;;;;;5065489;28;20191;-50
2023/11/03 07:53:41;;;;;;;2.50;1.60;;;14.20;56.40;;;;;;5067177;28;20251;-54
2023/11/03 07:56:07;;;;;;;2.50;1.40;;;14.30;56.50;;;;;;5067986;28;20233;-55
2023/11/03 07:58:33;;;;;;;5.27;1.80;;;14.20;56.10;;;;;;5063668;28;20559;-53
2023/11/03 08:00:59;;;;;;;5.40;1.80;;;14.30;56.10;;;;;;5058307;28;20180;-53
2023/11/03 08:03:28;;;;;;;2.80;1.70;;;14.30;56.00;;;;;;5060476;28;21729;-52
2023/11/03 08:05:54;;;;;;;3.73;1.40;;;14.30;56.00;;;;;;5065532;28;20820;-53
2023/11/03 08:08:20;;;;;;;5.67;1.80;;;14.20;55.70;;;;;;5064349;28;20839;-51
2023/11/03 08:10:45;;;;;;;7.63;1.90;;;14.30;56.00;;;;;;5063642;28;20450;-52
2023/11/03 08:13:12;;;;;;;8.00;2.47;;;14.20;56.10;;;;;;5057370;28;20192;-52
2023/11/03 08:15:37;;;;;;;4.00;2.00;;;14.20;55.60;;;;;;5059209;28;20184;-53
2023/11/03 08:18:09;;;;;;;3.97;2.27;;;14.20;55.90;;;;;;5055751;28;20535;-56
2023/11/03 08:20:35;;;;;;;11.23;3.60;;;14.30;55.90;;;;;;5054778;28;20192;-55
2023/11/03 08:23:00;;;;;;;6.87;2.90;;;14.30;55.80;;;;;;5065612;28;20438;-55
2023/11/03 08:25:28;;;;;;;4.53;2.70;;;14.40;56.00;;;;;;5061597;28;20269;-53
2023/11/03 08:27:53;;;;;;;5.27;2.90;;;14.40;55.60;;;;;;5064302;28;20219;-56
2023/11/03 08:30:19;;;;;;;4.20;2.30;;;14.50;56.10;;;;;;5060977;28;20469;-52
2023/11/03 08:32:46;;;;;;;2.47;2.17;;;14.60;56.30;;;;;;5066221;28;20310;-54
2023/11/03 08:35:12;;;;;;;5.30;1.90;;;14.60;56.10;;;;;;5064784;28;20215;-57
2023/11/03 08:37:40;;;;;;;3.67;1.73;;;14.60;55.80;;;;;;5065276;28;20532;-53
2023/11/03 08:40:07;;;;;;;4.60;1.63;;;14.60;55.70;;;;;;5062781;28;20458;-53
2023/11/03 08:42:33;;;;;;;4.23;1.97;;;14.50;55.60;;;;;;5066686;28;20936;-53
2023/11/03 08:44:58;;;;;;;5.33;2.03;;;14.50;55.40;;;;;;5066202;28;20450;-53
2023/11/03 08:47:24;;;;;;;7.70;1.60;;;14.30;55.50;;;;;;5066275;28;20227;-53
2023/11/03 08:49:50;;;;;;;5.90;3.00;;;14.20;55.60;;;;;;5067569;28;20239;-54
2023/11/03 08:52:15;;;;;;;3.60;1.60;;;14.30;55.70;;;;;;5066441;28;20214;-52
2023/11/03 08:54:41;;;;;;;3.83;1.40;;;14.30;55.90;;;;;;5063385;28;20274;-58
2023/11/03 08:57:06;;;;;;;4.90;1.47;;;14.10;55.90;;;;;;5060505;28;20191;-56
2023/11/03 08:59:32;;;;;;;4.03;3.30;;;14.10;56.10;;;;;;5063890;28;20695;-56
2023/11/03 09:01:58;;;;;;;4.00;1.93;;;14.10;56.20;;;;;;5064821;28;20188;-54
2023/11/03 09:04:24;;;;;;;3.13;1.67;;;14.10;55.80;;;;;;5060743;28;21065;-53
2023/11/03 09:06:49;;;;;;;3.90;1.50;;;13.90;56.20;;;;;;5058712;28;20216;-51
2023/11/03 09:09:15;;;;;;;2.43;1.50;;;13.90;56.40;;;;;;5060654;28;20677;-53
2023/11/03 09:11:43;;;;;;;2.97;1.47;;;13.60;56.40;;;;;;5062893;28;20750;-54
2023/11/03 09:14:10;;;;;;;6.70;1.60;;;13.70;56.70;;;;;;5069468;28;20557;-51
2023/11/03 09:16:35;;;;;;;3.20;1.30;;;13.60;56.80;;;;;;5062108;28;20445;-55
2023/11/03 09:19:01;;;;;;;2.57;1.57;;;13.80;56.90;;;;;;5061452;28;20461;-54
2023/11/03 09:21:27;;;;;;;1.53;1.27;;;13.80;57.10;;;;;;5062574;28;20192;-54
2023/11/03 09:23:52;;;;;;;8.53;1.57;;;13.70;56.40;;;;;;5060980;28;20191;-54
2023/11/03 09:26:18;;;;;;;2.40;1.40;;;13.70;56.70;;;;;;5056737;28;20286;-55
2023/11/03 09:28:45;;;;;;;2.60;1.10;;;13.80;56.70;;;;;;5064005;28;20750;-53
2023/11/03 09:31:10;;;;;;;1.80;1.10;;;13.90;56.60;;;;;;5065067;28;20528;-56
2023/11/03 09:33:36;;;;;;;1.27;1.07;;;13.90;56.70;;;;;;5066213;28;20986;-53
2023/11/03 09:36:05;;;;;;;1.97;1.20;;;14.10;56.50;;;;;;5063839;28;20180;-57
2023/11/03 09:38:32;;;;;;;2.20;1.00;;;13.90;56.10;;;;;;5069693;28;20462;-53
2023/11/03 09:40:58;;;;;;;4.20;1.10;;;13.80;56.00;;;;;;5065307;28;20529;-54
2023/11/03 09:43:24;;;;;;;3.03;1.13;;;14.00;56.30;;;;;;5064928;28;20438;-52
2023/11/03 09:45:50;;;;;;;3.37;1.30;;;14.10;55.80;;;;;;5068996;28;20790;-51
2023/11/03 09:48:19;;;;;;;2.70;1.57;;;14.10;55.50;;;;;;5067261;28;20546;-51
2023/11/03 09:50:47;;;;;;;2.70;1.30;;;14.40;55.60;;;;;;5063679;28;20211;-55
2023/11/03 09:53:22;;;;;;;4.10;1.33;;;14.40;55.20;;;;;;5060291;28;20450;-53
2023/11/03 09:55:47;;;;;;;1.90;1.00;;;14.40;55.40;;;;;;5066039;28;20490;-52
2023/11/03 09:58:15;;;;;;;2.50;1.23;;;14.20;55.60;;;;;;5067802;28;20461;-52
2023/11/03 10:00:41;;;;;;;2.67;1.37;;;14.20;55.90;;;;;;5056067;28;20809;-54
2023/11/03 10:03:08;;;;;;;2.30;0.80;;;14.30;55.80;;;;;;5066610;28;20449;-53
2023/11/03 10:05:37;;;;;;;1.77;0.90;;;14.20;55.70;;;;;;5061602;28;20450;-50
2023/11/03 10:08:03;;;;;;;4.07;1.30;;;14.00;55.90;;;;;;5067050;28;20461;-53
2023/11/03 10:10:34;;;;;;;2.17;1.20;;;14.00;55.60;;;;;;5063149;28;20445;-53
2023/11/03 10:13:01;;;;;;;3.80;1.00;;;14.00;55.20;;;;;;5061911;28;20448;-51
2023/11/03 10:15:26;;;;;;;2.73;1.20;;;13.90;55.50;;;;;;5067077;28;21164;-54
2023/11/03 10:17:53;;;;;;;1.27;1.17;;;13.70;56.10;;;;;;5061649;28;20556;-54
2023/11/03 10:20:20;;;;;;;0.83;0.83;;;13.70;56.70;;;;;;5068139;28;20236;-53
2023/11/03 10:22:47;;;;;;;2.17;1.07;;;13.70;56.30;;;;;;5066856;28;20976;-50
2023/11/03 10:25:14;;;;;;;2.50;1.17;;;13.80;56.30;;;;;;5068808;28;20418;-50
2023/11/03 10:27:39;;;;;;;1.50;0.90;;;13.70;56.20;;;;;;5065372;28;20470;-51
2023/11/03 10:30:06;;;;;;;2.90;1.40;;;14.00;56.50;;;;;;5068095;28;20960;-53
2023/11/03 10:32:33;;;;;;;2.30;0.90;;;14.20;56.20;;;;;;5069998;28;20934;-50
2023/11/03 10:35:04;;;;;;;1.70;1.00;;;14.20;55.80;;;;;;5066740;28;20499;-55
2023/11/03 10:37:29;;;;;;;2.17;1.07;;;14.40;55.60;;;;;;5069464;28;20445;-50
2023/11/03 10:39:55;;;;;;;1.00;1.00;;;14.30;55.40;;;;;;5067637;28;20461;-54
2023/11/03 10:42:24;;;;;;;2.37;1.00;;;14.50;55.60;;;;;;5066837;28;20407;-54
2023/11/03 10:44:55;;;;;;;4.70;1.90;;;14.50;55.20;;;;;;5064184;28;20438;-52
2023/11/03 10:47:26;;;;;;;2.87;1.10;;;14.60;54.90;;;;;;5068668;28;20473;-49
2023/11/03 10:50:05;;;;;;;2.23;1.63;;;14.60;54.90;;;;;;5067574;28;20462;-53
2023/11/03 10:52:41;;;;;;;2.40;1.10;;;14.50;54.50;;;;;;5063330;28;20426;-53
2023/11/03 10:55:25;;;;;;;1.50;0.87;;;14.50;54.30;;;;;;5061117;28;20445;-52
2023/11/03 10:57:55;;;;;;;1.30;1.00;;;14.60;54.10;;;;;;5068786;28;20426;-55
2023/11/03 11:00:28;;;;;;;3.40;0.80;;;14.30;53.80;;;;;;5063116;28;20433;-54
2023/11/03 11:03:21;;;;;;;1.30;1.10;;;14.30;54.50;;;;;;5066935;28;20449;-53
2023/11/03 11:06:20;;;;;;;1.70;1.40;;;14.20;54.50;;;;;;5065694;28;20469;-51
2023/11/03 11:08:47;;;;;;;2.67;1.13;;;14.30;54.60;;;;;;5067689;28;20470;-53
2023/11/03 11:11:12;;;;;;;0.97;0.87;;;14.40;54.30;;;;;;5066732;28;20442;-54
2023/11/03 11:13:42;;;;;;;2.00;1.90;;;14.50;54.30;;;;;;5067959;28;20437;-51
2023/11/03 11:16:10;;;;;;;2.03;1.40;;;14.60;54.70;;;;;;5067804;28;20599;-52
2023/11/03 11:18:44;;;;;;;2.03;0.90;;;14.60;53.90;;;;;;5068832;28;20445;-50
2023/11/03 11:21:11;;;;;;;1.50;1.40;;;14.60;54.10;;;;;;5064499;28;20806;-51
2023/11/03 11:23:43;;;;;;;2.50;1.57;;;14.80;53.60;;;;;;5065844;28;20580;-55
2023/11/03 11:26:20;;;;;;;1.47;1.37;;;15.00;53.80;;;;;;5063994;28;20543;-52
2023/11/03 11:28:46;;;;;;;6.40;2.17;;;15.00;53.50;;;;;;5066725;28;20478;-53
2023/11/03 11:31:27;;;;;;;3.83;3.10;;;14.90;53.00;;;;;;5065125;28;20809;-52
2023/11/03 11:34:12;;;;;;;2.07;1.80;;;14.90;53.40;;;;;;5068181;28;20520;-51
2023/11/03 11:36:39;;;;;;;2.47;1.50;;;15.00;53.00;;;;;;5067662;28;20426;-51
2023/11/03 11:39:12;;;;;;;2.27;1.53;;;14.50;52.60;;;;;;5068283;28;20461;-54
2023/11/03 11:42:04;;;;;;;1.53;1.37;;;14.60;53.60;;;;;;5065104;28;20453;-52
2023/11/03 11:44:31;;;;;;;1.00;0.90;;;14.50;53.10;;;;;;5064542;28;20487;-50
2023/11/03 11:46:58;;;;;;;0.80;0.80;;;14.60;53.10;;;;;;5064962;28;20485;-54
2023/11/03 11:49:27;;;;;;;1.40;0.80;;;14.70;52.90;;;;;;5068046;28;20450;-55
2023/11/03 11:51:55;;;;;;;1.93;1.17;;;14.80;52.80;;;;;;5066492;28;20458;-54
2023/11/03 11:54:22;;;;;;;1.83;0.70;;;14.80;52.70;;;;;;5068328;28;20438;-53
2023/11/03 11:56:48;;;;;;;0.97;0.70;;;14.80;52.90;;;;;;5066380;28;20430;-51
2023/11/03 11:59:16;;;;;;;2.03;0.90;;;14.90;52.40;;;;;;5068053;28;20446;-53
2023/11/03 12:01:43;;;;;;;0.80;0.80;;;14.90;52.30;;;;;;5065029;28;20453;-53
2023/11/03 12:04:11;;;;;;;0.93;0.77;;;15.00;51.90;;;;;;5067888;28;20423;-53
2023/11/03 12:06:38;;;;;;;1.73;0.80;;;15.00;51.70;;;;;;5066831;28;20911;-52
2023/11/03 12:09:04;;;;;;;0.60;0.50;;;14.90;52.20;;;;;;5061646;28;20923;-52
2023/11/03 12:11:29;;;;;;;0.60;0.50;;;14.70;51.90;;;;;;5059838;28;20434;-58
2023/11/03 12:13:56;;;;;;;2.30;0.57;;;14.70;51.60;;;;;;5064741;28;20180;-53
2023/11/03 12:16:22;;;;;;;2.63;0.80;;;15.00;52.00;;;;;;5067059;28;20180;-51
2023/11/03 12:18:50;;;;;;;1.20;0.83;;;15.00;51.60;;;;;;5065556;28;20976;-53
2023/11/03 12:21:16;;;;;;;1.27;0.60;;;15.10;51.60;;;;;;5065582;28;20541;-54
2023/11/03 12:23:42;;;;;;;0.63;0.60;;;15.00;51.70;;;;;;5062152;28;20529;-56
2023/11/03 12:26:08;;;;;;;0.60;0.57;;;14.60;51.60;;;;;;5059718;28;20212;-56
2023/11/03 12:28:35;;;;;;;0.90;0.60;;;14.40;52.10;;;;;;5059980;28;20580;-55
2023/11/03 12:31:04;;;;;;;0.60;0.57;;;14.60;52.20;;;;;;5063468;28;20442;-55
2023/11/03 12:33:31;;;;;;;0.70;0.70;;;14.70;52.40;;;;;;5066186;28;20429;-54
2023/11/03 12:35:57;;;;;;;2.40;0.60;;;14.80;52.20;;;;;;5063544;28;20434;-54
2023/11/03 12:38:23;;;;;;;0.80;0.50;;;15.00;52.10;;;;;;5064074;28;20477;-54
2023/11/03 12:40:50;;;;;;;0.90;0.67;;;14.80;51.70;;;;;;5064905;28;20215;-52
2023/11/03 12:43:17;;;;;;;3.90;0.70;;;14.80;51.80;;;;;;5066750;28;20949;-50